Time;durP1;ratioP1;P1;durP2;ratioP2;P2;SDS_P1;SDS_P2;PMS_P1;PMS_P2;Temp;Humidity;BMP_temperature;BMP_pressure;BME280_temperature;BME280_humidity;BME280_pressure;Samples;Min_cycle;Max_cycle;Signal;HPM_P1;HPM_P2
2021/03/28 00:00:45;;;;;;;8.05;2.47;;;6.20;80.40;;;;;;5072183;28;20027;-74
2021/03/28 00:03:18;;;;;;;5.72;2.35;;;6.30;80.30;;;;;;5072550;28;20020;-74
2021/03/28 00:05:45;;;;;;;8.13;2.50;;;6.30;80.60;;;;;;5072405;28;20579;-74
2021/03/28 00:08:13;;;;;;;5.80;2.20;;;6.30;80.00;;;;;;5072086;28;20028;-74
2021/03/28 00:10:45;;;;;;;6.30;2.10;;;6.30;79.60;;;;;;5072243;28;20107;-74
2021/03/28 00:13:27;;;;;;;7.07;2.13;;;6.30;79.70;;;;;;5054177;28;20032;-74
2021/03/28 00:15:56;;;;;;;3.85;2.15;;;6.30;79.40;;;;;;5072101;28;20062;-74
2021/03/28 00:18:31;;;;;;;3.75;1.83;;;6.30;79.60;;;;;;5054015;28;20545;-74
2021/03/28 00:21:21;;;;;;;7.40;2.38;;;6.30;79.20;;;;;;5072110;28;20024;-74
2021/03/28 00:23:53;;;;;;;4.95;1.85;;;6.30;78.90;;;;;;5054251;28;20066;-74
2021/03/28 00:26:25;;;;;;;5.80;2.83;;;6.30;78.40;;;;;;5072089;28;20029;-74
2021/03/28 00:29:05;;;;;;;6.22;3.13;;;6.30;78.70;;;;;;5071936;28;20112;-74
2021/03/28 00:31:38;;;;;;;8.25;2.75;;;6.40;78.60;;;;;;5070891;28;20534;-74
2021/03/28 00:34:10;;;;;;;5.55;2.25;;;6.30;78.20;;;;;;5071924;28;20035;-74
2021/03/28 00:36:52;;;;;;;5.63;2.22;;;6.30;78.10;;;;;;5072039;28;20120;-74
2021/03/28 00:39:45;;;;;;;5.60;1.63;;;6.40;78.10;;;;;;5071807;28;20032;-74
2021/03/28 00:42:21;;;;;;;8.55;2.50;;;6.30;77.70;;;;;;5071954;28;20023;-74
2021/03/28 00:44:52;;;;;;;7.22;2.50;;;6.30;77.70;;;;;;5054056;28;20034;-74
2021/03/28 00:47:21;;;;;;;6.70;2.25;;;6.30;77.40;;;;;;5071837;28;20100;-74
2021/03/28 00:49:48;;;;;;;6.72;1.90;;;6.40;77.00;;;;;;5053736;28;20024;-74
2021/03/28 00:52:13;;;;;;;9.65;1.95;;;6.40;76.30;;;;;;5071763;28;20025;-74
2021/03/28 00:54:46;;;;;;;8.35;1.85;;;6.40;76.30;;;;;;5071753;28;20411;-74
2021/03/28 00:57:38;;;;;;;9.07;2.00;;;6.50;75.90;;;;;;5071766;28;20063;-74
2021/03/28 01:00:13;;;;;;;3.75;1.80;;;6.60;76.20;;;;;;5053574;28;20119;-74
2021/03/28 01:03:02;;;;;;;5.72;2.17;;;6.60;76.00;;;;;;5071632;28;20062;-74
2021/03/28 01:05:46;;;;;;;6.78;1.90;;;6.60;75.70;;;;;;5071733;28;20116;-74
2021/03/28 01:08:25;;;;;;;4.53;1.90;;;6.60;75.70;;;;;;5071468;28;20039;-74
2021/03/28 01:10:54;;;;;;;1.80;1.50;;;6.60;75.90;;;;;;5071716;28;20031;-74
2021/03/28 01:13:57;;;;;;;7.32;2.17;;;6.50;75.60;;;;;;5071651;28;20060;-74
2021/03/28 01:16:35;;;;;;;8.02;2.35;;;6.50;75.80;;;;;;5071443;28;20078;-74
2021/03/28 01:19:32;;;;;;;3.50;1.33;;;6.50;75.80;;;;;;5071308;28;20096;-74
2021/03/28 01:22:20;;;;;;;4.93;2.13;;;6.50;75.20;;;;;;5071584;28;20020;-75
2021/03/28 01:24:49;;;;;;;12.32;2.63;;;6.70;75.70;;;;;;5053601;28;20040;-74
2021/03/28 01:27:48;;;;;;;3.47;1.55;;;6.70;76.20;;;;;;5071484;28;20028;-75
2021/03/28 01:30:17;;;;;;;4.22;1.98;;;6.80;77.40;;;;;;5071331;28;20033;-74
2021/03/28 01:33:00;;;;;;;6.35;1.80;;;6.80;76.90;;;;;;5071274;28;20388;-74
2021/03/28 01:35:48;;;;;;;4.93;2.05;;;6.90;76.30;;;;;;5071330;28;20036;-74
2021/03/28 01:38:44;;;;;;;10.48;2.35;;;7.00;76.60;;;;;;5071225;28;20039;-75
2021/03/28 01:41:20;;;;;;;7.72;1.75;;;7.00;74.70;;;;;;5071428;28;20150;-75
2021/03/28 01:44:21;;;;;;;6.40;2.03;;;7.00;75.40;;;;;;5055511;28;20089;-74
2021/03/28 01:47:22;;;;;;;6.10;1.83;;;7.00;77.20;;;;;;5006407;28;20071;-75
2021/03/28 01:50:00;;;;;;;6.68;2.05;;;7.00;78.40;;;;;;4993066;28;20497;-74
2021/03/28 01:52:44;;;;;;;8.60;2.13;;;6.80;78.70;;;;;;5030141;28;20056;-74
2021/03/28 01:55:32;;;;;;;6.18;2.03;;;6.80;79.70;;;;;;5056777;28;20511;-74
2021/03/28 01:58:07;;;;;;;6.70;1.77;;;6.80;79.80;;;;;;5074733;28;20021;-74
2021/03/28 02:00:38;;;;;;;3.78;1.73;;;6.80;78.60;;;;;;5074461;28;20029;-74
2021/03/28 02:03:25;;;;;;;5.72;2.00;;;6.90;78.30;;;;;;5074606;28;20013;-75
2021/03/28 02:06:20;;;;;;;7.57;1.75;;;7.10;77.10;;;;;;5074618;28;20106;-74
2021/03/28 02:09:15;;;;;;;4.63;1.80;;;7.20;76.20;;;;;;5056612;28;20047;-75
2021/03/28 02:12:11;;;;;;;8.32;1.98;;;7.20;75.50;;;;;;5073393;28;20035;-75
2021/03/28 02:14:42;;;;;;;7.50;2.35;;;7.20;75.70;;;;;;5074286;28;20021;-75
2021/03/28 02:17:32;;;;;;;11.70;1.95;;;7.00;75.90;;;;;;5056401;28;20017;-74
2021/03/28 02:20:04;;;;;;;3.53;1.40;;;6.90;74.90;;;;;;5074183;28;20025;-74
2021/03/28 02:22:51;;;;;;;6.45;2.38;;;6.70;74.80;;;;;;5074307;28;20021;-74
2021/03/28 02:25:36;;;;;;;8.65;2.35;;;6.60;75.70;;;;;;5074130;28;20107;-75
2021/03/28 02:28:14;;;;;;;4.68;1.60;;;6.40;77.60;;;;;;5074163;28;20028;-74
2021/03/28 02:30:43;;;;;;;20.92;2.15;;;6.20;76.30;;;;;;5073979;28;20044;-74
2021/03/28 02:33:30;;;;;;;3.25;1.70;;;6.30;78.00;;;;;;5073814;28;20043;-74
2021/03/28 02:36:21;;;;;;;6.00;1.73;;;6.20;77.10;;;;;;5073967;28;20035;-74
2021/03/28 02:38:55;;;;;;;7.30;2.35;;;6.20;79.10;;;;;;5073805;28;20021;-74
2021/03/28 02:41:48;;;;;;;4.65;1.55;;;6.20;78.80;;;;;;5073880;28;20434;-74
2021/03/28 02:44:28;;;;;;;8.95;1.50;;;6.10;79.70;;;;;;5073790;28;20044;-74
2021/03/28 02:47:50;;;;;;;5.68;1.80;;;6.00;79.50;;;;;;5073818;28;20020;-74
2021/03/28 02:50:26;;;;;;;3.92;2.03;;;6.10;78.80;;;;;;4995692;28;20045;-74
2021/03/28 02:53:04;;;;;;;8.23;2.08;;;6.20;79.00;;;;;;5073737;28;20028;-74
2021/03/28 02:55:47;;;;;;;7.93;2.55;;;6.00;78.60;;;;;;5054665;28;20025;-75
2021/03/28 02:58:33;;;;;;;6.47;2.30;;;6.10;77.60;;;;;;5073371;28;20095;-75
2021/03/28 03:01:36;;;;;;;7.65;1.48;;;6.00;77.60;;;;;;5073547;28;20436;-75
2021/03/28 03:04:21;;;;;;;9.35;2.05;;;6.00;77.10;;;;;;5073459;28;20031;-75
2021/03/28 03:07:17;;;;;;;4.22;1.30;;;5.90;77.20;;;;;;5055596;28;20070;-74
2021/03/28 03:10:01;;;;;;;6.38;1.50;;;5.90;77.70;;;;;;5073177;28;20058;-74
2021/03/28 03:12:34;;;;;;;5.40;1.88;;;5.70;77.10;;;;;;5073275;28;20028;-74
2021/03/28 03:15:42;;;;;;;5.55;1.63;;;5.80;77.40;;;;;;5055095;28;20024;-74
2021/03/28 03:18:20;;;;;;;4.25;1.40;;;5.80;76.40;;;;;;5045801;28;20036;-74
2021/03/28 03:21:04;;;;;;;3.38;1.25;;;5.60;77.00;;;;;;5055301;28;20101;-74
2021/03/28 03:23:55;;;;;;;4.65;1.70;;;5.40;77.70;;;;;;5073042;28;20012;-74
2021/03/28 03:26:55;;;;;;;6.63;2.00;;;5.40;78.10;;;;;;5072959;28;20503;-74
2021/03/28 03:29:55;;;;;;;4.72;1.65;;;5.40;78.70;;;;;;5072686;28;20020;-75
2021/03/28 03:32:40;;;;;;;4.45;2.00;;;5.40;78.70;;;;;;5072675;28;20037;-74
2021/03/28 03:35:30;;;;;;;8.50;3.15;;;5.40;78.70;;;;;;5072763;28;20059;-74
2021/03/28 03:38:36;;;;;;;5.95;2.13;;;5.40;78.10;;;;;;5072928;28;20472;-74
2021/03/28 03:41:22;;;;;;;9.38;2.55;;;5.20;78.40;;;;;;5072815;28;20029;-74
2021/03/28 03:44:33;;;;;;;5.38;1.83;;;5.10;78.40;;;;;;5072640;28;20120;-74
2021/03/28 03:47:17;;;;;;;10.52;2.13;;;5.30;78.80;;;;;;5068459;28;20033;-75
2021/03/28 03:50:06;;;;;;;3.40;2.00;;;5.20;79.60;;;;;;5072379;28;20071;-75
2021/03/28 03:52:47;;;;;;;7.20;2.33;;;5.20;80.40;;;;;;5054743;28;20027;-74
2021/03/28 03:55:24;;;;;;;6.32;2.13;;;5.20;80.10;;;;;;5072353;28;20031;-75
2021/03/28 03:57:54;;;;;;;11.38;2.78;;;5.20;80.70;;;;;;5072410;28;20503;-74
2021/03/28 04:00:41;;;;;;;9.80;2.08;;;5.30;80.00;;;;;;5072237;28;20025;-74
2021/03/28 04:03:22;;;;;;;5.50;2.25;;;5.20;79.20;;;;;;5072436;28;20069;-74
2021/03/28 04:06:37;;;;;;;5.88;2.10;;;5.10;79.80;;;;;;5054303;28;20051;-75
2021/03/28 04:09:22;;;;;;;6.43;2.22;;;5.10;80.90;;;;;;5072229;28;20111;-75
2021/03/28 04:12:15;;;;;;;3.00;1.75;;;5.10;80.60;;;;;;5072387;28;20028;-74
2021/03/28 04:14:53;;;;;;;4.18;2.40;;;5.20;80.70;;;;;;5072168;28;20107;-74
2021/03/28 04:17:18;;;;;;;9.18;2.10;;;5.10;80.70;;;;;;5072232;28;20035;-74
2021/03/28 04:20:11;;;;;;;9.63;2.40;;;4.90;81.10;;;;;;5072056;28;20411;-75
2021/03/28 04:23:02;;;;;;;12.50;2.17;;;4.90;80.00;;;;;;5054299;28;20078;-74
2021/03/28 04:25:44;;;;;;;7.38;2.00;;;4.80;80.80;;;;;;5054054;28;20116;-75
2021/03/28 04:28:48;;;;;;;3.45;2.22;;;4.60;82.20;;;;;;5071990;28;20392;-75
2021/03/28 04:31:26;;;;;;;6.68;2.75;;;4.60;82.10;;;;;;5041558;22;20494;-72
2021/03/28 04:34:00;;;;;;;5.55;1.98;;;4.40;82.60;;;;;;5112434;28;20035;-72
2021/03/28 04:36:41;;;;;;;6.55;1.98;;;4.50;82.40;;;;;;5112266;28;20072;-72
2021/03/28 04:39:34;;;;;;;8.65;2.10;;;4.60;81.90;;;;;;5112250;28;20035;-72
2021/03/28 04:42:34;;;;;;;6.47;2.22;;;4.50;82.10;;;;;;5111061;28;20043;-72
2021/03/28 04:45:21;;;;;;;4.78;2.17;;;4.50;81.50;;;;;;5112378;28;20024;-72
2021/03/28 04:47:52;;;;;;;7.63;1.98;;;4.40;82.20;;;;;;5112260;28;20031;-72
2021/03/28 04:50:18;;;;;;;6.93;2.08;;;4.40;82.00;;;;;;5112035;28;20042;-72
2021/03/28 04:53:08;;;;;;;6.68;2.35;;;4.40;82.90;;;;;;5112230;28;20023;-72
2021/03/28 04:55:53;;;;;;;10.55;2.10;;;4.50;82.60;;;;;;5112133;28;20027;-72
2021/03/28 04:58:40;;;;;;;8.95;2.42;;;4.60;81.80;;;;;;5110695;28;20030;-72
2021/03/28 05:01:51;;;;;;;8.98;2.50;;;4.60;81.70;;;;;;5112116;28;20015;-72
2021/03/28 05:04:36;;;;;;;3.97;2.13;;;4.70;81.60;;;;;;5112038;28;20107;-72
2021/03/28 05:07:39;;;;;;;9.18;2.65;;;4.80;80.50;;;;;;5112062;28;20031;-72
2021/03/28 05:10:40;;;;;;;4.57;2.08;;;4.80;80.20;;;;;;5111916;28;20024;-72
2021/03/28 05:13:24;;;;;;;5.47;2.17;;;4.70;80.40;;;;;;5111953;28;20103;-72
2021/03/28 05:16:28;;;;;;;5.93;2.50;;;4.60;80.50;;;;;;5093640;28;20028;-72
2021/03/28 05:19:18;;;;;;;9.25;2.13;;;4.60;80.50;;;;;;5112533;28;20520;-71
2021/03/28 05:22:15;;;;;;;9.95;1.98;;;4.50;80.70;;;;;;5115813;28;20378;-71
2021/03/28 05:25:18;;;;;;;9.10;2.28;;;4.30;80.70;;;;;;5115786;28;20060;-72
2021/03/28 05:28:05;;;;;;;12.63;2.15;;;4.40;81.70;;;;;;5115586;28;20030;-72
2021/03/28 05:31:06;;;;;;;4.47;1.55;;;4.50;81.00;;;;;;5092930;28;20130;-72
2021/03/28 05:33:55;;;;;;;8.82;2.47;;;4.90;81.10;;;;;;5095025;28;20039;-71
2021/03/28 05:36:54;;;;;;;10.80;2.65;;;5.10;79.80;;;;;;5095073;28;20032;-72
2021/03/28 05:39:47;;;;;;;5.03;2.60;;;5.00;78.40;;;;;;5095064;28;20023;-72
2021/03/28 05:42:32;;;;;;;7.22;2.78;;;4.70;79.30;;;;;;5095119;28;20024;-71
2021/03/28 05:45:36;;;;;;;9.57;2.88;;;4.60;79.90;;;;;;5095044;28;20093;-72
2021/03/28 05:48:31;;;;;;;11.70;2.90;;;4.70;80.80;;;;;;5093424;28;20119;-72
2021/03/28 05:51:11;;;;;;;6.32;3.03;;;4.70;79.90;;;;;;5094995;28;20095;-72
2021/03/28 05:54:10;;;;;;;5.72;2.25;;;4.70;79.90;;;;;;5094879;28;20360;-72
2021/03/28 05:57:03;;;;;;;6.88;2.65;;;4.40;80.80;;;;;;5094620;28;20031;-72
2021/03/28 05:59:48;;;;;;;10.82;4.43;;;4.30;81.60;;;;;;5094650;28;20024;-72
2021/03/28 06:02:50;;;;;;;6.68;2.53;;;4.20;82.50;;;;;;5094734;28;20066;-72
2021/03/28 06:05:22;;;;;;;8.63;2.35;;;4.40;83.90;;;;;;5093503;28;20027;-72
2021/03/28 06:08:09;;;;;;;3.90;2.00;;;4.70;83.90;;;;;;5094598;28;20036;-72
2021/03/28 06:10:54;;;;;;;4.88;1.95;;;4.80;84.10;;;;;;5094438;28;20024;-72
2021/03/28 06:13:53;;;;;;;7.85;2.15;;;4.80;83.80;;;;;;5094525;28;20142;-72
2021/03/28 06:16:47;;;;;;;7.18;2.15;;;4.90;82.80;;;;;;5094389;28;20066;-72
2021/03/28 06:19:31;;;;;;;7.97;2.42;;;5.00;82.90;;;;;;5092855;28;20107;-72
2021/03/28 06:22:05;;;;;;;7.90;2.03;;;4.90;82.10;;;;;;5093348;28;20070;-71
2021/03/28 06:24:43;;;;;;;2.90;1.85;;;4.80;83.10;;;;;;5092971;28;20081;-72
2021/03/28 06:27:36;;;;;;;3.30;2.08;;;5.00;82.60;;;;;;5094234;28;20363;-72
2021/03/28 06:30:43;;;;;;;4.32;1.95;;;5.10;82.40;;;;;;5094087;28;20028;-72
2021/03/28 06:33:36;;;;;;;3.53;1.98;;;5.10;81.20;;;;;;5051438;28;20488;-72
2021/03/28 06:36:38;;;;;;;4.55;1.75;;;5.30;80.60;;;;;;5029451;28;20109;-72
2021/03/28 06:39:41;;;;;;;4.88;1.90;;;5.40;79.00;;;;;;5087292;28;20050;-72
2021/03/28 06:42:48;;;;;;;7.15;1.98;;;5.60;78.40;;;;;;5092626;28;20538;-71
2021/03/28 06:45:23;;;;;;;7.85;2.22;;;5.60;77.50;;;;;;5093932;28;20039;-72
2021/03/28 06:48:08;;;;;;;12.32;2.20;;;5.70;77.80;;;;;;5093752;28;20031;-72
2021/03/28 06:51:03;;;;;;;12.23;2.35;;;5.80;78.50;;;;;;5092443;28;20391;-72
2021/03/28 06:54:00;;;;;;;6.53;1.63;;;6.00;77.80;;;;;;5093735;28;20020;-72
2021/03/28 06:56:48;;;;;;;8.52;3.63;;;6.00;77.40;;;;;;5075235;28;20028;-72
2021/03/28 06:59:51;;;;;;;5.57;1.88;;;6.10;77.00;;;;;;5093529;28;20021;-72
2021/03/28 07:02:20;;;;;;;9.23;1.90;;;6.20;76.70;;;;;;5092276;28;20066;-72
2021/03/28 07:05:24;;;;;;;8.38;2.28;;;6.30;75.80;;;;;;5093286;28;20032;-72
2021/03/28 07:08:40;;;;;;;6.47;2.33;;;6.30;74.70;;;;;;5093253;28;20085;-72
2021/03/28 07:11:26;;;;;;;9.98;2.17;;;6.40;75.20;;;;;;5030678;28;20528;-72
2021/03/28 07:14:11;;;;;;;12.65;2.70;;;6.40;74.70;;;;;;5071042;28;20043;-72
2021/03/28 07:17:07;;;;;;;7.38;2.10;;;6.60;75.10;;;;;;5093137;28;20028;-72
2021/03/28 07:19:43;;;;;;;7.75;2.47;;;6.70;75.10;;;;;;5093026;28;20039;-72
2021/03/28 07:22:27;;;;;;;4.35;1.70;;;6.90;75.20;;;;;;5093286;28;20054;-72
2021/03/28 07:25:15;;;;;;;5.78;2.15;;;6.90;71.50;;;;;;5091789;28;20415;-72
2021/03/28 07:28:02;;;;;;;9.85;1.60;;;7.00;72.00;;;;;;5092850;28;20032;-72
2021/03/28 07:31:02;;;;;;;7.28;1.70;;;7.10;71.50;;;;;;5091607;28;20106;-72
2021/03/28 07:33:57;;;;;;;3.63;1.48;;;7.20;69.20;;;;;;5092643;28;20032;-72
2021/03/28 07:36:41;;;;;;;4.00;1.90;;;7.40;69.40;;;;;;5091520;28;20399;-72
2021/03/28 07:39:13;;;;;;;6.68;1.48;;;7.50;69.00;;;;;;5074586;28;20024;-74
2021/03/28 07:42:00;;;;;;;5.30;1.73;;;7.70;69.60;;;;;;5074101;28;20028;-73
2021/03/28 07:45:00;;;;;;;5.78;1.98;;;7.90;68.70;;;;;;5092966;28;20380;-72
2021/03/28 07:48:00;;;;;;;8.00;1.70;;;8.10;65.70;;;;;;5059773;28;20072;-72
2021/03/28 07:50:56;;;;;;;8.50;2.08;;;8.30;64.30;;;;;;5092548;28;20016;-72
2021/03/28 07:53:25;;;;;;;15.80;2.58;;;8.10;64.30;;;;;;5106787;28;20107;-72
2021/03/28 07:56:15;;;;;;;7.53;1.27;;;8.00;64.10;;;;;;5120199;27;20028;-72
2021/03/28 07:58:56;;;;;;;11.77;2.50;;;7.70;64.60;;;;;;5102589;28;20032;-72
2021/03/28 08:01:39;;;;;;;7.97;2.00;;;7.70;65.80;;;;;;5092363;28;20432;-72
2021/03/28 08:04:30;;;;;;;10.18;1.90;;;7.90;66.20;;;;;;5092328;28;20021;-72
2021/03/28 08:07:18;;;;;;;10.23;1.98;;;8.20;66.10;;;;;;5090961;28;20047;-72
2021/03/28 08:10:22;;;;;;;9.35;1.85;;;8.30;65.60;;;;;;5092110;28;20020;-72
2021/03/28 08:13:35;;;;;;;10.50;2.75;;;8.50;65.30;;;;;;5131415;27;20543;-72
2021/03/28 08:16:38;;;;;;;9.80;1.95;;;8.40;63.60;;;;;;5077359;28;20262;-72
2021/03/28 08:19:22;;;;;;;9.60;2.05;;;8.30;63.60;;;;;;5093966;28;20062;-72
2021/03/28 08:22:17;;;;;;;6.05;2.03;;;8.30;64.40;;;;;;5094292;28;20028;-72
2021/03/28 08:25:07;;;;;;;9.27;1.80;;;8.50;64.20;;;;;;5111996;28;20352;-72
2021/03/28 08:28:02;;;;;;;6.15;2.10;;;8.60;63.70;;;;;;5112225;28;20372;-72
2021/03/28 08:30:46;;;;;;;7.15;1.98;;;8.60;64.40;;;;;;5112367;28;20028;-72
2021/03/28 08:33:46;;;;;;;6.68;2.40;;;8.60;63.00;;;;;;5111424;28;20059;-72
2021/03/28 08:36:26;;;;;;;10.02;2.00;;;8.80;63.80;;;;;;5112156;28;20024;-72
2021/03/28 08:39:22;;;;;;;10.02;2.17;;;8.80;63.70;;;;;;5093810;28;20088;-72
2021/03/28 08:42:06;;;;;;;5.88;2.47;;;9.10;63.30;;;;;;5112162;28;20023;-72
2021/03/28 08:45:04;;;;;;;4.15;1.48;;;9.30;61.30;;;;;;5093963;28;20065;-72
2021/03/28 08:47:55;;;;;;;10.63;1.73;;;9.20;59.60;;;;;;5112425;28;20027;-72
2021/03/28 08:50:31;;;;;;;7.80;1.65;;;9.40;58.60;;;;;;5100791;28;20559;-72
2021/03/28 08:53:17;;;;;;;15.65;2.45;;;9.60;59.20;;;;;;5113047;28;20048;-72
2021/03/28 08:56:25;;;;;;;10.80;2.10;;;10.00;58.80;;;;;;5116250;28;20058;-72
2021/03/28 08:59:19;;;;;;;5.80;1.67;;;10.20;58.10;;;;;;5077610;28;20038;-72
2021/03/28 09:02:14;;;;;;;9.93;1.92;;;10.20;57.70;;;;;;5116222;28;20031;-72
2021/03/28 09:04:56;;;;;;;6.75;1.60;;;10.30;57.90;;;;;;5116160;28;20054;-72
2021/03/28 09:07:33;;;;;;;4.50;1.50;;;10.70;56.90;;;;;;5116054;28;20020;-72
2021/03/28 09:10:50;;;;;;;6.85;2.58;;;10.80;56.80;;;;;;5116001;28;20058;-74
2021/03/28 09:13:18;;;;;;;7.38;1.48;;;11.10;55.50;;;;;;5053193;28;20372;-72
2021/03/28 09:16:10;;;;;;;6.80;1.73;;;10.80;55.20;;;;;;5115865;28;20023;-72
2021/03/28 09:19:00;;;;;;;6.25;2.05;;;10.90;54.90;;;;;;5097771;28;20027;-72
2021/03/28 09:21:49;;;;;;;7.90;2.05;;;11.00;54.70;;;;;;5116107;28;20023;-74
2021/03/28 09:24:29;;;;;;;6.22;1.50;;;11.30;53.90;;;;;;5097419;28;20023;-72
2021/03/28 09:27:13;;;;;;;5.15;1.40;;;11.80;53.00;;;;;;5115733;28;20024;-73
2021/03/28 09:30:16;;;;;;;5.22;1.70;;;12.10;52.20;;;;;;5115414;28;20031;-72
2021/03/28 09:33:11;;;;;;;5.82;1.33;;;12.10;51.80;;;;;;5115497;28;20077;-73
2021/03/28 09:35:52;;;;;;;6.65;1.83;;;12.30;51.60;;;;;;5115348;28;20028;-73
2021/03/28 09:38:51;;;;;;;10.15;2.33;;;12.40;51.20;;;;;;5115496;28;20375;-72
2021/03/28 09:41:33;;;;;;;6.03;1.73;;;12.90;50.80;;;;;;5097500;28;20020;-73
2021/03/28 09:43:58;;;;;;;;;;;13.20;50.60;;;;;;5115891;28;20020;-72
2021/03/28 09:46:52;;;;;;;7.63;1.60;;;12.90;50.50;;;;;;5115412;28;20613;-73
2021/03/28 09:49:29;;;;;;;4.15;1.83;;;13.10;49.60;;;;;;5097080;28;20455;-72
2021/03/28 09:52:21;;;;;;;4.32;1.67;;;13.20;48.70;;;;;;5091705;28;20058;-72
2021/03/28 09:55:23;;;;;;;7.43;1.70;;;13.60;48.70;;;;;;5094800;28;20082;-72
2021/03/28 09:57:52;;;;;;;4.38;1.83;;;13.80;47.90;;;;;;5094635;28;20028;-72
2021/03/28 10:00:36;;;;;;;2.72;1.70;;;14.00;47.40;;;;;;5094585;28;20047;-72
2021/03/28 10:03:26;;;;;;;7.43;2.05;;;14.20;47.20;;;;;;5094573;28;20073;-72
2021/03/28 10:06:04;;;;;;;4.40;2.00;;;14.30;46.60;;;;;;5094533;28;20095;-72
2021/03/28 10:08:41;;;;;;;8.73;2.88;;;14.20;47.50;;;;;;5093280;28;20028;-73
2021/03/28 10:11:19;;;;;;;13.35;1.92;;;14.40;46.90;;;;;;5095017;28;20427;-74
2021/03/28 10:14:42;;;;;;;6.15;1.63;;;14.50;46.70;;;;;;5093299;28;20454;-74
2021/03/28 10:17:44;;;;;;;4.85;1.20;;;14.50;45.80;;;;;;5051835;28;20040;-72
2021/03/28 10:20:37;;;;;;;6.65;2.05;;;14.80;43.90;;;;;;5034635;28;20492;-72
2021/03/28 10:23:07;;;;;;;4.47;1.90;;;15.00;44.80;;;;;;5089795;28;20051;-72
2021/03/28 10:25:52;;;;;;;5.43;1.60;;;15.10;43.30;;;;;;5092897;28;20024;-73
2021/03/28 10:28:39;;;;;;;8.15;1.92;;;15.70;43.00;;;;;;5092834;28;20020;-73
2021/03/28 10:34:08;;;;;;;4.53;1.80;;;16.80;41.90;;;;;;5052132;28;20584;-74
2021/03/28 10:37:19;;;;;;;7.90;1.58;;;16.20;41.10;;;;;;5034889;28;20079;-73
2021/03/28 10:40:04;;;;;;;5.70;1.75;;;16.00;40.90;;;;;;5053333;28;20028;-74
2021/03/28 10:42:50;;;;;;;5.57;1.70;;;16.50;41.30;;;;;;5053661;28;20013;-73
2021/03/28 10:45:25;;;;;;;3.88;1.48;;;17.30;40.70;;;;;;5053732;28;20054;-73
2021/03/28 10:48:29;;;;;;;4.85;1.58;;;17.00;39.30;;;;;;5052368;28;20028;-73
2021/03/28 10:51:32;;;;;;;5.35;1.83;;;17.50;38.70;;;;;;5053433;28;20116;-73
2021/03/28 10:54:42;;;;;;;9.60;2.50;;;17.20;38.30;;;;;;5018972;28;20025;-74
2021/03/28 10:57:53;;;;;;;6.28;1.65;;;17.30;38.50;;;;;;5015723;28;20041;-74
2021/03/28 11:00:30;;;;;;;3.17;1.38;;;17.50;39.70;;;;;;5015486;28;20044;-74
2021/03/28 11:03:23;;;;;;;4.75;1.38;;;17.20;40.10;;;;;;5053256;28;20025;-75
2021/03/28 11:05:57;;;;;;;4.75;1.40;;;17.00;39.80;;;;;;5038855;28;20030;-75
2021/03/28 11:09:01;;;;;;;3.00;1.23;;;17.70;40.10;;;;;;5015496;28;20043;-75
2021/03/28 11:11:39;;;;;;;4.35;1.60;;;17.70;38.30;;;;;;5015400;28;20094;-75
2021/03/28 11:14:29;;;;;;;4.60;1.58;;;18.00;36.80;;;;;;5015326;28;20105;-75
2021/03/28 11:17:20;;;;;;;6.78;2.00;;;18.30;38.70;;;;;;5032159;28;20025;-74
2021/03/28 11:19:59;;;;;;;3.75;1.73;;;18.90;37.60;;;;;;5032707;28;20092;-74
2021/03/28 11:22:44;;;;;;;3.80;1.60;;;19.20;36.60;;;;;;5032955;28;20546;-74
2021/03/28 11:25:56;;;;;;;6.38;1.33;;;19.20;35.00;;;;;;5033299;28;20025;-73
2021/03/28 11:29:05;;;;;;;3.92;1.25;;;19.30;35.20;;;;;;5032452;28;20080;-75
2021/03/28 11:31:53;;;;;;;3.80;1.42;;;19.10;35.00;;;;;;5001782;28;20040;-74
2021/03/28 11:34:28;;;;;;;3.97;1.45;;;19.30;35.60;;;;;;5033029;28;20025;-74
2021/03/28 11:37:00;;;;;;;2.88;1.40;;;19.50;35.10;;;;;;5032678;28;20036;-74
2021/03/28 11:39:29;;;;;;;6.07;1.52;;;19.40;33.70;;;;;;5014915;28;20018;-73
2021/03/28 11:41:57;;;;;;;6.30;1.88;;;19.40;32.20;;;;;;5032546;28;20025;-73
2021/03/28 11:44:42;;;;;;;6.60;1.33;;;19.80;32.80;;;;;;5032497;28;20029;-74
2021/03/28 11:47:20;;;;;;;11.88;1.75;;;19.80;32.90;;;;;;5014713;28;20049;-74
2021/03/28 11:49:56;;;;;;;3.42;1.40;;;20.20;31.00;;;;;;5014855;28;20060;-74
2021/03/28 11:52:26;;;;;;;3.38;1.40;;;20.20;31.20;;;;;;5014761;28;20064;-74
2021/03/28 11:55:04;;;;;;;7.53;1.75;;;20.30;31.10;;;;;;5014620;28;20544;-73
2021/03/28 11:57:33;;;;;;;4.03;1.38;;;20.50;32.50;;;;;;5014613;28;20021;-74
2021/03/28 12:00:35;;;;;;;6.10;1.60;;;20.30;31.10;;;;;;5032182;28;20029;-73
2021/03/28 12:03:19;;;;;;;5.20;1.38;;;20.20;32.40;;;;;;5032163;28;20075;-74
2021/03/28 12:05:56;;;;;;;2.40;1.30;;;20.60;31.50;;;;;;5032110;28;20049;-74
2021/03/28 12:08:29;;;;;;;3.72;1.50;;;20.60;31.50;;;;;;5032144;28;20032;-74
2021/03/28 12:10:59;;;;;;;2.92;1.48;;;19.90;29.90;;;;;;5032075;28;20048;-74
2021/03/28 12:13:43;;;;;;;4.78;1.40;;;19.40;30.20;;;;;;4998169;28;20077;-74
2021/03/28 12:16:10;;;;;;;2.67;1.10;;;19.10;31.00;;;;;;5031806;28;20033;-74
2021/03/28 12:18:38;;;;;;;10.98;1.75;;;19.00;31.40;;;;;;5014198;28;20029;-74
2021/03/28 12:21:07;;;;;;;4.10;1.50;;;18.50;32.50;;;;;;5014029;28;20021;-75
2021/03/28 12:23:39;;;;;;;3.45;1.35;;;18.20;32.10;;;;;;5031976;28;20040;-75
2021/03/28 12:26:12;;;;;;;3.97;1.58;;;18.50;33.40;;;;;;5031922;28;20025;-74
2021/03/28 12:29:19;;;;;;;9.25;2.00;;;18.50;33.90;;;;;;5031577;28;20064;-74
2021/03/28 12:31:51;;;;;;;5.25;1.75;;;18.90;32.70;;;;;;5006741;28;20049;-74
2021/03/28 12:34:36;;;;;;;3.33;1.50;;;18.90;31.90;;;;;;4997815;28;20120;-75
2021/03/28 12:37:15;;;;;;;3.40;1.55;;;18.80;31.10;;;;;;5014046;28;20551;-75
2021/03/28 12:39:41;;;;;;;5.18;1.85;;;18.80;33.00;;;;;;5031751;28;20018;-75
2021/03/28 12:42:35;;;;;;;4.25;1.80;;;18.60;32.90;;;;;;5031745;28;20380;-74
2021/03/28 12:45:06;;;;;;;2.78;1.30;;;18.20;34.10;;;;;;5031734;28;20080;-75
2021/03/28 12:47:38;;;;;;;5.43;1.33;;;18.50;35.30;;;;;;5023567;28;20420;-74
2021/03/28 12:50:13;;;;;;;3.80;1.77;;;18.70;34.60;;;;;;5051440;28;20212;-75
2021/03/28 12:53:02;;;;;;;2.45;1.30;;;18.50;35.30;;;;;;5033532;28;20036;-74
2021/03/28 12:55:28;;;;;;;3.65;1.65;;;18.20;33.80;;;;;;5033606;28;20036;-74
2021/03/28 12:58:06;;;;;;;6.05;1.50;;;17.90;35.20;;;;;;5051135;28;20021;-75
2021/03/28 13:01:02;;;;;;;7.32;2.47;;;17.90;35.60;;;;;;5051284;28;20017;-74
2021/03/28 13:03:35;;;;;;;6.15;1.92;;;18.00;37.00;;;;;;5051547;28;20017;-75
2021/03/28 13:06:00;;;;;;;5.68;1.95;;;17.80;35.30;;;;;;5033700;28;20025;-74
2021/03/28 13:08:26;;;;;;;3.85;1.45;;;17.50;36.10;;;;;;5051323;28;20032;-74
2021/03/28 13:10:59;;;;;;;5.80;1.83;;;17.50;37.20;;;;;;5051408;28;20438;-75
2021/03/28 13:13:26;;;;;;;2.65;1.50;;;17.70;37.20;;;;;;5050904;28;20033;-75
2021/03/28 13:16:00;;;;;;;8.13;1.35;;;17.50;35.90;;;;;;5033349;28;20029;-75
2021/03/28 13:18:47;;;;;;;5.30;1.75;;;17.30;37.40;;;;;;5033377;28;20059;-74
2021/03/28 13:21:21;;;;;;;3.72;1.63;;;17.70;37.70;;;;;;5050886;28;20300;-74
2021/03/28 13:23:46;;;;;;;3.40;1.60;;;17.80;35.60;;;;;;5051342;28;20083;-74
2021/03/28 13:26:28;;;;;;;5.95;1.83;;;17.60;34.90;;;;;;5051146;28;20029;-74
2021/03/28 13:29:03;;;;;;;;;;;17.30;34.20;;;;;;5051566;28;20074;-75
2021/03/28 13:31:38;;;;;;;5.07;1.40;;;17.20;35.00;;;;;;5033293;28;20477;-74
2021/03/28 13:34:35;;;;;;;9.20;1.50;;;17.70;35.30;;;;;;5033302;28;20033;-74
2021/03/28 13:37:13;;;;;;;13.45;2.25;;;17.30;35.10;;;;;;5026070;28;20037;-74
2021/03/28 13:40:03;;;;;;;4.25;1.58;;;17.20;36.00;;;;;;5018488;28;20052;-74
2021/03/28 13:42:36;;;;;;;4.72;1.88;;;17.00;34.90;;;;;;5054715;28;20013;-75
2021/03/28 13:45:16;;;;;;;3.28;1.40;;;17.00;36.00;;;;;;5054763;28;20024;-75
2021/03/28 13:47:49;;;;;;;4.43;1.33;;;17.10;36.40;;;;;;5036989;28;20029;-75
2021/03/28 13:50:33;;;;;;;4.78;1.70;;;17.30;36.10;;;;;;5054613;28;20029;-75
2021/03/28 13:53:01;;;;;;;4.40;1.63;;;17.30;36.40;;;;;;5054775;28;20032;-76
2021/03/28 13:55:47;;;;;;;5.10;1.65;;;17.40;36.00;;;;;;5020298;28;20059;-76
2021/03/28 13:58:29;;;;;;;3.80;1.88;;;17.30;35.10;;;;;;5036775;28;20047;-73
2021/03/28 14:01:19;;;;;;;8.63;1.50;;;17.20;36.00;;;;;;5036485;28;20536;-74
2021/03/28 14:03:47;;;;;;;3.17;1.27;;;17.20;35.20;;;;;;5042828;28;20128;-76
2021/03/28 14:06:28;;;;;;;3.25;1.42;;;17.40;34.30;;;;;;5036471;28;20025;-74
2021/03/28 14:09:19;;;;;;;5.35;1.80;;;17.40;33.60;;;;;;5036496;28;20029;-75
2021/03/28 14:11:48;;;;;;;4.05;1.88;;;17.50;33.80;;;;;;5025583;28;20043;-75
2021/03/28 14:14:22;;;;;;;3.17;1.30;;;17.40;33.80;;;;;;5036301;28;20435;-77
2021/03/28 14:16:50;;;;;;;5.72;1.40;;;17.30;33.80;;;;;;5054050;28;20110;-75
2021/03/28 14:19:27;;;;;;;3.95;1.77;;;17.20;32.70;;;;;;5019211;28;20086;-75
2021/03/28 14:21:53;;;;;;;3.95;1.60;;;17.20;34.70;;;;;;5036496;28;20021;-76
2021/03/28 14:24:26;;;;;;;6.38;1.67;;;17.40;33.90;;;;;;5054035;28;20028;-76
2021/03/28 14:26:57;;;;;;;3.05;1.45;;;17.20;34.10;;;;;;5019728;28;20035;-76
2021/03/28 14:29:54;;;;;;;7.40;1.40;;;17.30;34.20;;;;;;5053796;28;20065;-76